createdAt,value
2017-09-01T00:01:50.014Z,8.68
2017-09-01T00:04:17.540Z,8.40
2017-09-01T00:06:45.038Z,6.00
2017-09-01T00:09:12.536Z,7.03
2017-09-01T00:11:40.027Z,6.90
2017-09-01T00:14:07.516Z,8.05
2017-09-01T00:16:34.777Z,7.03
2017-09-01T00:19:02.276Z,8.23
2017-09-01T00:21:30.704Z,7.97
2017-09-01T00:23:59.124Z,9.88
2017-09-01T00:26:26.617Z,9.40
2017-09-01T00:28:54.141Z,9.35
2017-09-01T00:31:21.636Z,8.45
2017-09-01T00:33:49.124Z,8.70
2017-09-01T00:36:16.650Z,9.55
2017-09-01T00:38:44.138Z,9.43
2017-09-01T00:41:11.673Z,8.63
2017-09-01T00:43:39.224Z,10.52
2017-09-01T00:46:06.716Z,8.95
2017-09-01T00:48:34.212Z,9.05
2017-09-01T00:51:01.713Z,9.48
2017-09-01T00:53:30.247Z,10.18
2017-09-01T00:55:57.736Z,9.95
2017-09-01T00:58:25.232Z,10.95
2017-09-01T01:00:52.728Z,12.40
2017-09-01T01:03:20.223Z,10.50
2017-09-01T01:05:47.764Z,12.27
2017-09-01T01:08:15.261Z,11.77
2017-09-01T01:10:42.764Z,11.40
2017-09-01T01:13:10.266Z,11.75
2017-09-01T01:15:37.792Z,11.45
2017-09-01T01:18:05.341Z,11.77
2017-09-01T01:20:32.844Z,11.65
2017-09-01T01:23:00.341Z,12.13
2017-09-01T01:25:27.849Z,11.43
2017-09-01T01:27:55.349Z,11.93
2017-09-01T01:30:22.876Z,12.07
2017-09-01T01:32:50.372Z,11.20
2017-09-01T01:35:17.873Z,10.45
2017-09-01T01:37:45.382Z,11.35
2017-09-01T01:40:12.878Z,11.23
2017-09-01T01:42:40.398Z,10.45
2017-09-01T01:45:07.897Z,11.20
2017-09-01T01:47:35.386Z,9.70
2017-09-01T01:50:02.884Z,8.98
2017-09-01T01:52:30.381Z,9.15
2017-09-01T01:54:57.892Z,8.60
2017-09-01T01:57:25.384Z,8.85
2017-09-01T01:59:52.878Z,8.50
2017-09-01T02:02:20.372Z,9.63
2017-09-01T02:04:47.869Z,10.00
2017-09-01T02:07:17.049Z,9.57
2017-09-01T02:09:45.576Z,10.47
2017-09-01T02:12:12.780Z,8.97
2017-09-01T02:14:40.272Z,8.50
2017-09-01T02:17:07.485Z,8.60
2017-09-01T02:19:34.981Z,8.20
2017-09-01T02:22:02.200Z,7.47
2017-09-01T02:24:29.401Z,7.30
2017-09-01T02:26:56.885Z,6.95
2017-09-01T02:29:24.396Z,6.85
2017-09-01T02:31:51.612Z,7.50
2017-09-01T02:34:20.125Z,7.90
2017-09-01T02:36:47.633Z,7.55
2017-09-01T02:39:14.844Z,7.13
2017-09-01T02:41:42.332Z,8.65
2017-09-01T02:44:10.773Z,7.43
2017-09-01T02:46:37.998Z,7.83
2017-09-01T02:49:05.196Z,9.20
2017-09-01T02:51:32.406Z,8.63
2017-09-01T02:53:59.902Z,8.52
2017-09-01T02:56:27.109Z,8.77
2017-09-01T02:58:54.620Z,9.20
2017-09-01T03:01:21.836Z,8.77
2017-09-01T03:03:49.040Z,8.60
2017-09-01T03:06:16.529Z,8.68
2017-09-01T03:08:43.730Z,8.73
2017-09-01T03:11:11.251Z,8.75
2017-09-01T03:13:38.454Z,8.43
2017-09-01T03:16:05.657Z,8.73
2017-09-01T03:18:33.144Z,8.18
2017-09-01T03:21:00.637Z,7.65
2017-09-01T03:23:28.160Z,8.10
2017-09-01T03:25:55.641Z,7.70
2017-09-01T03:28:23.125Z,6.93
2017-09-01T03:30:50.629Z,8.00
2017-09-01T03:33:18.126Z,8.13
2017-09-01T03:35:45.349Z,8.47
2017-09-01T03:38:12.840Z,8.00
2017-09-01T03:40:40.040Z,7.90
2017-09-01T03:43:07.525Z,7.28
2017-09-01T03:45:35.012Z,7.40
2017-09-01T03:48:02.257Z,7.70
2017-09-01T03:50:29.748Z,8.30
2017-09-01T03:52:57.248Z,9.07
2017-09-01T03:55:24.732Z,7.25
2017-09-01T03:57:52.369Z,6.68
2017-09-01T04:00:19.858Z,6.50
2017-09-01T04:02:47.354Z,7.30
2017-09-01T04:05:14.840Z,5.82
2017-09-01T04:07:42.324Z,5.90
2017-09-01T04:10:10.565Z,5.30
2017-09-01T04:12:37.872Z,5.70
2017-09-01T04:15:05.197Z,5.30
2017-09-01T04:17:33.452Z,5.70
2017-09-01T04:20:00.941Z,6.10
2017-09-01T04:22:28.424Z,6.53
2017-09-01T04:24:55.916Z,4.90
2017-09-01T04:27:23.427Z,3.15
2017-09-01T04:29:50.908Z,3.20
2017-09-01T04:32:18.388Z,2.15
2017-09-01T04:34:45.876Z,3.10
2017-09-01T04:37:13.362Z,2.83
2017-09-01T04:39:41.858Z,2.87
2017-09-01T04:42:09.334Z,2.95
2017-09-01T04:44:36.828Z,2.22
2017-09-01T04:47:04.315Z,2.58
2017-09-01T04:49:31.812Z,2.92
2017-09-01T04:51:59.316Z,2.60
2017-09-01T04:54:26.796Z,2.47
2017-09-01T04:56:54.292Z,3.10
2017-09-01T04:59:21.497Z,2.97
2017-09-01T05:01:49.004Z,3.70
2017-09-01T05:04:16.345Z,3.97
2017-09-01T05:06:44.570Z,3.37
2017-09-01T05:09:12.069Z,3.35
2017-09-01T05:11:39.269Z,3.67
2017-09-01T05:14:06.761Z,3.08
2017-09-01T05:16:35.261Z,3.60
2017-09-01T05:19:02.476Z,3.43
2017-09-01T05:21:29.965Z,3.60
2017-09-01T05:23:57.452Z,4.32
2017-09-01T05:26:24.652Z,5.20
2017-09-01T05:28:51.865Z,5.60
2017-09-01T05:31:19.065Z,5.70
2017-09-01T05:33:46.552Z,4.95
2017-09-01T05:36:14.045Z,5.65
2017-09-01T05:38:41.540Z,6.47
2017-09-01T05:41:11.009Z,5.10
2017-09-01T05:43:38.497Z,4.65
2017-09-01T05:46:05.693Z,4.77
2017-09-01T05:48:32.902Z,5.07
2017-09-01T05:51:00.108Z,5.70
2017-09-01T05:53:27.612Z,6.15
2017-09-01T05:55:54.809Z,6.77
2017-09-01T05:58:22.012Z,6.77
2017-09-01T06:00:49.221Z,5.97
2017-09-01T06:03:16.417Z,6.03
2017-09-01T06:05:43.645Z,5.50
2017-09-01T06:08:11.604Z,8.80
2017-09-01T06:10:38.809Z,7.83
2017-09-01T06:13:06.004Z,6.47
2017-09-01T06:15:33.204Z,6.10
2017-09-01T06:18:00.421Z,7.50
2017-09-01T06:20:27.624Z,7.30
2017-09-01T06:22:54.836Z,5.67
2017-09-01T06:25:22.989Z,5.10
2017-09-01T06:27:50.189Z,6.30
2017-09-01T06:30:17.405Z,4.30
2017-09-01T06:32:44.652Z,5.10
2017-09-01T06:35:11.845Z,5.03
2017-09-01T06:37:39.045Z,5.47
2017-09-01T06:40:06.252Z,4.80
2017-09-01T06:42:33.473Z,5.83
2017-09-01T06:45:00.960Z,4.75
2017-09-01T06:47:28.456Z,4.72
2017-09-01T06:49:55.952Z,4.80
2017-09-01T06:52:23.432Z,4.05
2017-09-01T06:54:50.948Z,4.22
2017-09-01T06:57:18.432Z,4.03
2017-09-01T06:59:45.918Z,4.75
2017-09-01T07:02:13.405Z,4.20
2017-09-01T07:04:40.896Z,3.65
2017-09-01T07:07:08.405Z,3.65
2017-09-01T07:09:35.905Z,3.35
2017-09-01T07:12:03.401Z,3.53
2017-09-01T07:14:30.884Z,3.10
2017-09-01T07:16:59.122Z,3.25
2017-09-01T07:19:26.628Z,2.55
2017-09-01T07:21:54.193Z,2.58
2017-09-01T07:24:21.394Z,2.83
2017-09-01T07:26:48.881Z,2.62
2017-09-01T07:29:22.856Z,2.53
2017-09-01T07:31:50.077Z,2.47
2017-09-01T07:34:17.272Z,2.63
2017-09-01T07:36:44.468Z,2.30
2017-09-01T07:39:11.668Z,2.10
2017-09-01T07:41:38.870Z,1.90
2017-09-01T07:44:06.089Z,2.20
2017-09-01T07:46:33.292Z,1.97
2017-09-01T07:49:00.493Z,2.50
2017-09-01T07:51:27.699Z,2.00
2017-09-01T07:53:54.893Z,1.90
2017-09-01T07:56:22.132Z,2.00
2017-09-01T07:58:49.339Z,2.37
2017-09-01T08:01:16.544Z,2.00
2017-09-01T08:03:43.754Z,2.10
2017-09-01T08:06:10.957Z,1.67
2017-09-01T08:08:38.168Z,2.10
2017-09-01T08:11:05.368Z,1.80
2017-09-01T08:13:32.583Z,1.83
2017-09-01T08:15:59.789Z,2.00
2017-09-01T08:18:26.993Z,1.90
2017-09-01T08:20:54.200Z,1.70
2017-09-01T08:23:21.401Z,1.80
2017-09-01T08:25:48.639Z,1.60
2017-09-01T08:28:15.840Z,1.80
2017-09-01T08:30:43.044Z,1.67
2017-09-01T08:33:10.248Z,1.57
2017-09-01T08:35:37.441Z,1.70
2017-09-01T08:38:06.576Z,1.90
2017-09-01T08:40:33.779Z,2.20
2017-09-01T08:43:01.266Z,2.17
2017-09-01T08:45:28.752Z,2.30
2017-09-01T08:47:55.957Z,2.80
2017-09-01T08:50:23.188Z,2.10
2017-09-01T08:52:50.201Z,2.20
2017-09-01T08:55:17.397Z,2.57
2017-09-01T08:57:44.596Z,2.80
2017-09-01T09:00:11.800Z,2.43
2017-09-01T09:02:39.044Z,2.03
2017-09-01T09:05:06.473Z,2.03
2017-09-01T09:07:33.673Z,1.80
2017-09-01T09:10:00.872Z,2.10
2017-09-01T09:12:28.082Z,2.00
2017-09-01T09:14:57.224Z,1.90
2017-09-01T09:17:24.446Z,1.80
2017-09-01T09:19:51.654Z,1.70
2017-09-01T09:22:18.856Z,1.97
2017-09-01T09:24:46.170Z,1.40
2017-09-01T09:27:13.404Z,1.60
2017-09-01T09:29:40.604Z,1.40
2017-09-01T09:32:07.796Z,1.63
2017-09-01T09:34:35.022Z,1.40
2017-09-01T09:37:02.220Z,1.40
2017-09-01T09:39:29.428Z,1.60
2017-09-01T09:41:56.644Z,2.10
2017-09-01T09:44:24.129Z,1.45
2017-09-01T09:46:51.333Z,1.50
2017-09-01T09:49:18.532Z,1.63
2017-09-01T09:51:45.756Z,1.60
2017-09-01T09:54:12.952Z,1.43
2017-09-01T09:56:40.143Z,1.50
2017-09-01T09:59:07.351Z,1.80
2017-09-01T10:01:36.520Z,1.50
2017-09-01T10:04:03.725Z,1.60
2017-09-01T10:06:30.921Z,1.40
2017-09-01T10:08:58.126Z,1.70
2017-09-01T10:11:25.335Z,1.27
2017-09-01T10:13:52.557Z,1.27
2017-09-01T10:16:19.762Z,1.20
2017-09-01T10:18:47.908Z,1.23
2017-09-01T10:21:15.116Z,1.00
2017-09-01T10:23:43.255Z,1.47
2017-09-01T10:26:10.756Z,1.70
2017-09-01T10:28:37.961Z,1.67
2017-09-01T10:31:05.160Z,1.50
2017-09-01T10:33:32.356Z,1.53
2017-09-01T10:35:59.569Z,1.70
2017-09-01T10:38:26.795Z,1.33
2017-09-01T10:40:54.004Z,1.47
2017-09-01T10:43:21.200Z,1.50
2017-09-01T10:45:48.406Z,1.50
2017-09-01T10:48:21.169Z,1.50
2017-09-01T10:50:54.044Z,1.83
2017-09-01T10:53:26.821Z,1.60
2017-09-01T10:55:59.588Z,1.60
2017-09-01T10:58:27.734Z,1.70
2017-09-01T11:00:54.928Z,1.60
2017-09-01T11:03:22.124Z,1.40
2017-09-01T11:05:50.256Z,1.37
2017-09-01T11:08:17.484Z,1.30
2017-09-01T11:10:45.621Z,1.57
2017-09-01T11:13:12.816Z,1.10
2017-09-01T11:15:40.016Z,1.00
2017-09-01T11:18:08.158Z,1.10
2017-09-01T11:20:40.793Z,1.10
2017-09-01T11:23:13.577Z,1.03
2017-09-01T11:25:40.796Z,1.00
2017-09-01T11:28:08.010Z,0.90
2017-09-01T11:30:35.212Z,0.90
2017-09-01T11:33:02.408Z,1.00
2017-09-01T11:35:29.602Z,1.20
2017-09-01T11:37:58.760Z,1.07
2017-09-01T11:40:25.962Z,1.13
2017-09-01T11:42:54.115Z,0.90
2017-09-01T11:45:21.320Z,1.30
2017-09-01T11:47:49.471Z,0.90
2017-09-01T11:50:16.696Z,1.33
2017-09-01T11:52:43.901Z,1.07
2017-09-01T11:55:12.049Z,1.10
2017-09-01T11:57:39.249Z,1.10
2017-09-01T12:00:06.447Z,1.10
2017-09-01T12:02:33.669Z,1.00
2017-09-01T12:05:00.869Z,1.00
2017-09-01T12:07:28.075Z,1.10
2017-09-01T12:09:55.285Z,0.97
2017-09-01T12:12:22.488Z,1.20
2017-09-01T12:14:49.707Z,1.10
2017-09-01T12:17:16.908Z,1.07
2017-09-01T12:19:44.390Z,1.10
2017-09-01T12:22:11.876Z,1.52
2017-09-01T12:24:39.361Z,1.27
2017-09-01T12:27:06.860Z,1.00
2017-09-01T12:29:34.344Z,1.15
2017-09-01T12:32:02.507Z,1.00
2017-09-01T12:34:29.705Z,0.90
2017-09-01T12:36:56.901Z,0.87
2017-09-01T12:39:24.113Z,0.80
2017-09-01T12:41:51.303Z,0.80
2017-09-01T12:44:18.504Z,0.80
2017-09-01T12:46:45.717Z,0.80
2017-09-01T12:49:12.912Z,0.80
2017-09-01T12:51:40.141Z,0.90
2017-09-01T12:54:07.348Z,0.80
2017-09-01T12:56:34.548Z,0.80
2017-09-01T12:59:01.748Z,1.03
2017-09-01T13:01:28.953Z,0.77
2017-09-01T13:03:56.177Z,1.30
2017-09-01T13:06:23.377Z,0.90
2017-09-01T13:08:50.576Z,0.90
2017-09-01T13:11:17.584Z,1.07
2017-09-01T13:13:44.790Z,0.80
2017-09-01T13:16:12.005Z,0.93
2017-09-01T13:18:39.212Z,1.00
2017-09-01T13:21:07.396Z,1.37
2017-09-01T13:23:34.604Z,0.80
2017-09-01T13:26:01.810Z,1.13
2017-09-01T13:28:29.034Z,0.80
2017-09-01T13:30:56.233Z,0.80
2017-09-01T13:33:23.434Z,0.97
2017-09-01T13:35:50.640Z,0.90
2017-09-01T13:38:17.841Z,1.23
2017-09-01T13:40:45.064Z,0.93
2017-09-01T13:43:12.269Z,1.00
2017-09-01T13:45:39.469Z,0.90
2017-09-01T13:48:06.670Z,1.00
2017-09-01T13:50:34.826Z,1.13
2017-09-01T13:53:01.864Z,1.00
2017-09-01T13:55:30.004Z,1.60
2017-09-01T13:57:57.200Z,1.10
2017-09-01T14:00:24.401Z,1.27
2017-09-01T14:02:53.214Z,1.10
2017-09-01T14:05:20.792Z,1.37
2017-09-01T14:07:48.001Z,1.20
2017-09-01T14:10:15.201Z,1.10
2017-09-01T14:12:42.400Z,1.13
2017-09-01T14:15:09.609Z,1.13
2017-09-01T14:17:36.828Z,0.90
2017-09-01T14:20:04.028Z,1.00
2017-09-01T14:22:31.228Z,1.10
2017-09-01T14:24:58.428Z,1.57
2017-09-01T14:27:25.641Z,1.10
2017-09-01T14:29:52.866Z,1.37
2017-09-01T14:32:20.068Z,1.13
2017-09-01T14:34:47.265Z,1.03
2017-09-01T14:37:14.464Z,1.00
2017-09-01T14:39:41.661Z,0.90
2017-09-01T14:42:08.884Z,1.10
2017-09-01T14:44:36.081Z,0.80
2017-09-01T14:47:04.256Z,1.10
2017-09-01T14:49:31.452Z,1.20
2017-09-01T14:51:58.668Z,1.13
2017-09-01T14:54:25.893Z,1.20
2017-09-01T14:56:53.097Z,1.30
2017-09-01T14:59:20.297Z,1.00
2017-09-01T15:01:47.507Z,1.20
2017-09-01T15:04:14.713Z,1.00
2017-09-01T15:06:41.933Z,1.43
2017-09-01T15:09:09.128Z,1.13
2017-09-01T15:11:36.324Z,1.37
2017-09-01T15:14:03.524Z,1.00
2017-09-01T15:16:30.724Z,1.10
2017-09-01T15:18:57.940Z,1.00
2017-09-01T15:21:25.141Z,1.00
2017-09-01T15:23:52.350Z,1.10
2017-09-01T15:26:19.570Z,1.10
2017-09-01T15:28:46.773Z,1.00
2017-09-01T15:31:13.997Z,1.07
2017-09-01T15:33:41.192Z,0.77
2017-09-01T15:36:08.388Z,1.07
2017-09-01T15:38:35.392Z,0.90
2017-09-01T15:41:02.605Z,0.80
2017-09-01T15:43:29.829Z,1.13
2017-09-01T15:45:57.029Z,1.20
2017-09-01T15:48:24.228Z,0.97
2017-09-01T15:50:51.432Z,0.97
2017-09-01T15:53:19.584Z,1.10
2017-09-01T15:55:46.805Z,1.50
2017-09-01T15:58:14.000Z,1.50
2017-09-01T16:00:41.198Z,1.20
2017-09-01T16:03:08.405Z,1.13
2017-09-01T16:05:35.611Z,0.80
2017-09-01T16:08:02.825Z,1.30
2017-09-01T16:10:30.025Z,1.53
2017-09-01T16:12:57.224Z,1.20
2017-09-01T16:15:24.428Z,1.10
2017-09-01T16:17:51.629Z,1.10
2017-09-01T16:20:18.852Z,1.97
2017-09-01T16:22:46.053Z,1.60
2017-09-01T16:25:13.256Z,1.80
2017-09-01T16:27:40.445Z,1.43
2017-09-01T16:30:07.381Z,1.30
2017-09-01T16:32:34.611Z,1.53
2017-09-01T16:35:01.812Z,1.43
2017-09-01T16:37:29.022Z,1.33
2017-09-01T16:39:56.240Z,1.60
2017-09-01T16:42:23.435Z,1.30
2017-09-01T16:44:50.669Z,1.30
2017-09-01T16:47:17.870Z,1.00
2017-09-01T16:49:45.077Z,1.10
2017-09-01T16:52:12.280Z,1.37
2017-09-01T16:54:39.489Z,1.60
2017-09-01T16:57:06.696Z,1.47
2017-09-01T16:59:33.906Z,1.70
2017-09-01T17:02:01.405Z,1.50
2017-09-01T17:04:29.557Z,1.60
2017-09-01T17:06:56.756Z,1.77
2017-09-01T17:09:23.952Z,1.77
2017-09-01T17:11:51.462Z,2.00
2017-09-01T17:14:19.881Z,2.10
2017-09-01T17:16:47.368Z,2.00
2017-09-01T17:19:14.849Z,2.20
2017-09-01T17:21:42.061Z,2.40
2017-09-01T17:24:09.565Z,2.15
2017-09-01T17:26:37.981Z,2.70
2017-09-01T17:29:05.468Z,2.85
2017-09-01T17:31:32.668Z,2.27
2017-09-01T17:34:00.149Z,2.90
2017-09-01T17:36:27.664Z,2.53
2017-09-01T17:38:56.092Z,3.25
2017-09-01T17:41:23.581Z,2.65
2017-09-01T17:43:51.063Z,3.33
2017-09-01T17:46:18.548Z,3.10
2017-09-01T17:48:46.057Z,3.45
2017-09-01T17:51:13.547Z,3.20
2017-09-01T17:53:41.037Z,3.20
2017-09-01T17:56:08.529Z,3.17
2017-09-01T17:58:36.022Z,3.78
2017-09-01T18:01:03.541Z,4.50
2017-09-01T18:03:31.038Z,3.60
2017-09-01T18:05:58.533Z,3.83
2017-09-01T18:08:26.020Z,4.55
2017-09-01T18:10:53.506Z,4.62
2017-09-01T18:13:21.030Z,4.15
2017-09-01T18:15:48.520Z,4.87
2017-09-01T18:18:16.008Z,4.25
2017-09-01T18:20:43.505Z,3.83
2017-09-01T18:23:10.999Z,4.25
2017-09-01T18:25:38.521Z,4.37
2017-09-01T18:28:06.005Z,5.25
2017-09-01T18:30:33.490Z,5.12
2017-09-01T18:33:00.976Z,5.40
2017-09-01T18:35:28.489Z,6.18
2017-09-01T18:37:55.998Z,5.85
2017-09-01T18:40:23.489Z,6.90
2017-09-01T18:42:51.918Z,7.93
2017-09-01T18:45:20.316Z,6.28
2017-09-01T18:47:47.810Z,5.28
2017-09-01T18:50:15.331Z,5.30
2017-09-01T18:52:42.827Z,4.50
2017-09-01T18:55:10.320Z,4.40
2017-09-01T18:57:37.814Z,4.90
2017-09-01T19:00:05.953Z,5.05
2017-09-01T19:02:33.485Z,4.05
2017-09-01T19:05:00.977Z,4.10
2017-09-01T19:07:28.472Z,5.00
2017-09-01T19:09:55.956Z,4.97
2017-09-01T19:12:23.440Z,5.07
2017-09-01T19:14:51.962Z,4.97
2017-09-01T19:17:20.396Z,5.32
2017-09-01T19:19:47.890Z,4.60
2017-09-01T19:22:15.390Z,5.80
2017-09-01T19:24:42.885Z,5.45
2017-09-01T19:27:10.405Z,5.65
2017-09-01T19:29:37.892Z,6.10
2017-09-01T19:32:06.373Z,6.85
2017-09-01T19:34:33.872Z,6.90
2017-09-01T19:37:01.363Z,6.57
2017-09-01T19:39:28.885Z,7.40
2017-09-01T19:41:56.529Z,6.05
2017-09-01T19:44:24.024Z,6.28
2017-09-01T19:46:51.510Z,6.60
2017-09-01T19:49:19.000Z,5.78
2017-09-01T19:51:46.533Z,4.47
2017-09-01T19:54:13.843Z,4.90
2017-09-01T19:56:41.337Z,4.22
2017-09-01T19:59:08.824Z,4.15
2017-09-01T20:01:36.319Z,3.87
2017-09-01T20:04:03.664Z,4.50
2017-09-01T20:06:31.156Z,4.07
2017-09-01T20:08:58.645Z,3.87
2017-09-01T20:11:26.138Z,3.10
2017-09-01T20:13:53.616Z,4.03
2017-09-01T20:16:21.141Z,3.62
2017-09-01T20:18:48.638Z,3.92
2017-09-01T20:21:16.132Z,3.37
2017-09-01T20:23:43.621Z,3.53
2017-09-01T20:26:11.110Z,3.28
2017-09-01T20:28:38.616Z,3.42
2017-09-01T20:31:06.101Z,3.90
2017-09-01T20:33:33.592Z,3.90
2017-09-01T20:36:02.007Z,3.58
2017-09-01T20:38:29.493Z,3.70
2017-09-01T20:40:57.005Z,3.45
2017-09-01T20:43:24.494Z,4.20
2017-09-01T20:45:51.984Z,3.97
2017-09-01T20:48:19.480Z,4.55
2017-09-01T20:50:46.980Z,4.80
2017-09-01T20:53:16.400Z,4.50
2017-09-01T20:55:43.884Z,5.45
2017-09-01T20:58:11.380Z,4.57
2017-09-01T21:00:38.873Z,5.55
2017-09-01T21:03:06.372Z,5.50
2017-09-01T21:05:33.893Z,5.85
2017-09-01T21:08:01.381Z,5.72
2017-09-01T21:10:28.872Z,6.18
2017-09-01T21:12:56.363Z,6.70
2017-09-01T21:15:23.862Z,6.80
2017-09-01T21:17:51.384Z,7.18
2017-09-01T21:20:18.876Z,6.90
2017-09-01T21:22:46.360Z,7.75
2017-09-01T21:25:13.853Z,8.43
2017-09-01T21:27:41.351Z,9.90
2017-09-01T21:30:08.886Z,10.88
2017-09-01T21:32:36.393Z,11.25
2017-09-01T21:35:03.888Z,11.20
2017-09-01T21:37:31.407Z,11.25
2017-09-01T21:39:58.904Z,11.45
2017-09-01T21:42:26.404Z,11.38
2017-09-01T21:44:53.900Z,12.52
2017-09-01T21:47:21.392Z,12.40
2017-09-01T21:49:48.701Z,11.65
2017-09-01T21:52:16.196Z,12.82
2017-09-01T21:54:43.692Z,13.60
2017-09-01T21:57:11.219Z,11.35
2017-09-01T21:59:38.721Z,12.23
2017-09-01T22:02:06.217Z,10.75
2017-09-01T22:04:33.716Z,11.82
2017-09-01T22:07:01.212Z,11.30
2017-09-01T22:09:28.737Z,10.45
2017-09-01T22:11:56.224Z,8.60
2017-09-01T22:14:23.708Z,7.10
2017-09-01T22:16:51.196Z,7.95
2017-09-01T22:19:18.509Z,8.25
2017-09-01T22:21:46.031Z,6.72
2017-09-01T22:24:13.517Z,7.80
2017-09-01T22:26:41.009Z,7.95
2017-09-01T22:29:08.508Z,8.25
2017-09-01T22:31:36.001Z,6.57
2017-09-01T22:34:03.505Z,6.03
2017-09-01T22:36:31.004Z,7.65
2017-09-01T22:38:58.313Z,7.90
2017-09-01T22:41:26.741Z,8.40
2017-09-01T22:43:54.244Z,9.68
2017-09-01T22:46:22.862Z,8.90
2017-09-01T22:48:50.356Z,9.30
2017-09-01T22:51:17.852Z,9.70
2017-09-01T22:53:45.344Z,9.13
2017-09-01T22:56:12.837Z,10.90
2017-09-01T22:58:40.359Z,10.15
2017-09-01T23:01:07.848Z,11.15
2017-09-01T23:03:35.337Z,10.20
2017-09-01T23:06:03.049Z,10.32
2017-09-01T23:08:30.550Z,10.30
2017-09-01T23:10:58.090Z,9.80
2017-09-01T23:13:25.837Z,10.93
2017-09-01T23:15:53.339Z,11.35
2017-09-01T23:18:20.833Z,12.05
2017-09-01T23:20:48.329Z,11.65
2017-09-01T23:23:15.849Z,11.25
2017-09-01T23:25:43.345Z,11.50
2017-09-01T23:28:10.857Z,10.95
2017-09-01T23:30:38.353Z,11.32
2017-09-01T23:33:05.856Z,11.20
2017-09-01T23:35:33.376Z,11.30
2017-09-01T23:38:00.878Z,11.30
2017-09-01T23:40:28.373Z,11.05
2017-09-01T23:42:55.869Z,11.27
2017-09-01T23:45:23.369Z,11.48
2017-09-01T23:47:50.886Z,10.95
2017-09-01T23:50:18.381Z,12.10
2017-09-01T23:52:45.887Z,11.55
2017-09-01T23:55:13.387Z,12.43
2017-09-01T23:57:40.884Z,12.18
